Time;durP1;ratioP1;P1;durP2;ratioP2;P2;SDS_P1;SDS_P2;PMS_P1;PMS_P2;Temp;Humidity;BMP_temperature;BMP_pressure;BME280_temperature;BME280_humidity;BME280_pressure;Samples;Min_cycle;Max_cycle;Signal;HPM_P1;HPM_P2
2022/02/06 00:01:40;;;;;;;4.43;2.63;;;;;;;;;;5116343;28;20196;-86
2022/02/06 00:04:07;;;;;;;4.60;2.90;;;;;;;;;;5116303;28;20264;-87
2022/02/06 00:06:35;;;;;;;3.27;2.63;;;;;;;;;;5116206;28;20222;-87
2022/02/06 00:09:03;;;;;;;3.47;2.93;;;;;;;;;;5116243;27;20678;-88
2022/02/06 00:11:30;;;;;;;3.17;2.43;;;;;;;;;;5116063;28;20255;-86
2022/02/06 00:13:57;;;;;;;7.20;2.63;;;;;;;;;;5116934;28;20203;-87
2022/02/06 00:16:25;;;;;;;3.80;2.43;;;;;;;;;;5116007;28;20577;-87
2022/02/06 00:18:53;;;;;;;2.77;2.57;;;;;;;;;;5115836;28;20781;-87
2022/02/06 00:21:21;;;;;;;3.00;2.70;;;;;;;;;;5116148;28;20216;-87
2022/02/06 00:23:52;;;;;;;3.93;3.13;;;;;;;;;;5116136;28;20200;-87
2022/02/06 00:26:28;;;;;;;3.37;3.00;;;;;;;;;;5115688;28;20188;-88
2022/02/06 00:29:11;;;;;;;3.07;2.80;;;;;;;;;;5116095;28;20256;-87
2022/02/06 00:31:50;;;;;;;5.00;3.70;;;;;;;;;;5114991;28;20199;-87
2022/02/06 00:34:49;;;;;;;3.30;3.00;;;;;;;;;;5115747;28;20552;-88
2022/02/06 00:40:01;;;;;;;3.90;3.60;;;;;;;;;;5115494;28;20194;-88
2022/02/06 00:42:28;;;;;;;3.63;3.30;;;;;;;;;;5115561;28;20639;-87
2022/02/06 00:44:55;;;;;;;3.43;3.13;;;;;;;;;;5115252;28;20235;-87
2022/02/06 00:47:23;;;;;;;4.10;3.37;;;;;;;;;;5115179;28;20234;-88
2022/02/06 00:49:52;;;;;;;3.53;3.20;;;;;;;;;;5115430;28;20196;-87
2022/02/06 00:52:25;;;;;;;5.73;3.63;;;;;;;;;;5115258;28;20219;-87
2022/02/06 00:54:52;;;;;;;2.70;2.50;;;;;;;;;;5115193;28;20241;-87
2022/02/06 00:57:20;;;;;;;3.57;3.27;;;;;;;;;;5115464;28;20625;-87
2022/02/06 00:59:47;;;;;;;5.43;3.27;;;;;;;;;;5115346;28;20196;-88
2022/02/06 01:02:14;;;;;;;4.00;3.63;;;;;;;;;;5114874;28;20199;-87
2022/02/06 01:04:41;;;;;;;3.50;3.20;;;;;;;;;;5114902;28;20199;-87
2022/02/06 01:07:10;;;;;;;4.80;3.67;;;;;;;;;;5114668;28;20195;-87
2022/02/06 01:09:37;;;;;;;4.73;3.40;;;;;;;;;;5115099;28;20191;-87
2022/02/06 01:12:05;;;;;;;3.40;3.10;;;;;;;;;;5114967;28;20263;-87
2022/02/06 01:14:46;;;;;;;4.40;3.20;;;;;;;;;;5115206;28;20205;-87
2022/02/06 01:17:23;;;;;;;3.70;2.63;;;;;;;;;;5114782;28;20190;-87
2022/02/06 01:19:58;;;;;;;5.00;3.00;;;;;;;;;;5114921;28;20183;-87
2022/02/06 01:22:30;;;;;;;3.23;2.90;;;;;;;;;;5114813;28;20180;-87
2022/02/06 01:25:03;;;;;;;3.50;2.90;;;;;;;;;;5114646;28;20198;-87
2022/02/06 01:27:40;;;;;;;3.77;3.17;;;;;;;;;;5114905;28;20225;-87
2022/02/06 01:30:18;;;;;;;3.63;3.30;;;;;;;;;;5114948;28;20711;-87
2022/02/06 01:32:52;;;;;;;3.33;2.63;;;;;;;;;;5114372;28;20203;-87
2022/02/06 01:35:28;;;;;;;3.27;2.90;;;;;;;;;;5114552;28;20555;-87
2022/02/06 01:38:08;;;;;;;3.40;3.00;;;;;;;;;;5114548;28;20187;-87
2022/02/06 01:40:41;;;;;;;3.17;2.70;;;;;;;;;;5114681;28;20666;-87
2022/02/06 01:43:14;;;;;;;3.10;2.83;;;;;;;;;;5113487;28;20271;-88
2022/02/06 01:46:05;;;;;;;3.07;2.47;;;;;;;;;;5113832;28;20635;-87
2022/02/06 02:02:43;;;;;;;3.10;2.80;;;;;;;;;;5114114;28;20685;-87
2022/02/06 02:11:27;;;;;;;4.07;3.00;;;;;;;;;;5051180;28;20275;-88
2022/02/06 02:14:06;;;;;;;3.47;2.83;;;;;;;;;;5051497;28;20242;-87
2022/02/06 02:27:48;;;;;;;2.27;2.17;;;;;;;;;;5069115;28;20195;-88
2022/02/06 02:33:28;;;;;;;2.47;2.27;;;;;;;;;;5114099;28;20207;-87
2022/02/06 02:47:14;;;;;;;2.63;2.10;;;;;;;;;;5113256;28;20567;-86
2022/02/06 02:49:49;;;;;;;1.83;1.73;;;;;;;;;;5113157;28;20553;-86
2022/02/06 02:52:26;;;;;;;2.20;2.00;;;;;;;;;;5112812;28;20210;-85
2022/02/06 02:55:11;;;;;;;2.00;1.80;;;;;;;;;;5113231;28;20624;-88
2022/02/06 02:57:45;;;;;;;3.03;2.03;;;;;;;;;;5113651;28;20187;-88
2022/02/06 03:00:24;;;;;;;1.87;1.77;;;;;;;;;;5113629;28;20178;-88
2022/02/06 03:03:00;;;;;;;2.27;1.93;;;;;;;;;;5113698;28;20609;-88
2022/02/06 03:05:28;;;;;;;2.20;2.00;;;;;;;;;;5113341;28;20199;-88
2022/02/06 03:07:55;;;;;;;1.90;1.80;;;;;;;;;;5113009;28;20195;-88
2022/02/06 03:10:24;;;;;;;3.60;2.00;;;;;;;;;;5113151;28;20198;-88
2022/02/06 03:12:53;;;;;;;2.03;1.83;;;;;;;;;;5113828;28;20259;-88
2022/02/06 03:15:34;;;;;;;3.53;2.13;;;;;;;;;;5113511;28;20196;-88
2022/02/06 03:18:03;;;;;;;2.40;2.20;;;;;;;;;;5113324;28;20198;-89
2022/02/06 03:20:33;;;;;;;2.17;1.90;;;;;;;;;;5113756;28;20211;-88
2022/02/06 03:23:03;;;;;;;2.30;2.20;;;;;;;;;;5113438;28;20667;-88
2022/02/06 03:25:34;;;;;;;5.10;2.30;;;;;;;;;;5113039;28;20183;-88
2022/02/06 03:28:02;;;;;;;2.83;2.53;;;;;;;;;;5113009;28;20203;-88
2022/02/06 03:30:30;;;;;;;3.57;2.07;;;;;;;;;;5113293;28;20196;-87
2022/02/06 03:32:58;;;;;;;2.97;2.17;;;;;;;;;;5113471;28;20223;-87
2022/02/06 03:35:25;;;;;;;2.50;2.30;;;;;;;;;;5113100;28;20199;-87
2022/02/06 03:37:53;;;;;;;2.43;2.23;;;;;;;;;;5112617;28;20278;-88
2022/02/06 03:40:23;;;;;;;3.37;2.40;;;;;;;;;;5112779;28;20223;-86
2022/02/06 03:43:05;;;;;;;4.03;2.90;;;;;;;;;;5112310;28;20216;-86
2022/02/06 03:45:41;;;;;;;3.20;2.70;;;;;;;;;;5112327;28;20252;-85
2022/02/06 03:48:20;;;;;;;2.47;2.10;;;;;;;;;;5112192;28;20652;-85
2022/02/06 03:50:50;;;;;;;2.53;2.33;;;;;;;;;;5112780;28;20669;-85
2022/02/06 03:53:20;;;;;;;2.27;2.07;;;;;;;;;;5112232;28;20203;-85
2022/02/06 03:55:49;;;;;;;3.90;2.10;;;;;;;;;;5112377;28;20615;-85
2022/02/06 03:58:18;;;;;;;2.50;2.00;;;;;;;;;;5112428;28;20206;-86
2022/02/06 04:00:45;;;;;;;2.53;2.33;;;;;;;;;;5112443;28;20560;-86
2022/02/06 04:03:13;;;;;;;2.33;2.13;;;;;;;;;;5112093;28;20191;-87
2022/02/06 04:05:45;;;;;;;3.77;2.47;;;;;;;;;;5112319;28;20227;-87
2022/02/06 04:08:15;;;;;;;2.30;2.07;;;;;;;;;;5115045;28;20250;-87
2022/02/06 04:10:46;;;;;;;2.80;2.50;;;;;;;;;;5116151;28;20199;-88
2022/02/06 04:13:17;;;;;;;4.30;2.47;;;;;;;;;;5116081;28;20314;-87
2022/02/06 04:15:49;;;;;;;3.00;2.70;;;;;;;;;;5116066;28;20672;-86
2022/02/06 04:18:23;;;;;;;3.80;2.97;;;;;;;;;;5116576;28;20655;-87
2022/02/06 04:20:51;;;;;;;5.13;2.83;;;;;;;;;;5116496;28;20187;-87
2022/02/06 04:23:18;;;;;;;2.90;2.63;;;;;;;;;;5115749;28;20199;-87
2022/02/06 04:25:45;;;;;;;3.33;2.47;;;;;;;;;;5116460;28;20649;-87
2022/02/06 04:28:13;;;;;;;5.33;3.10;;;;;;;;;;5115587;28;20191;-87
2022/02/06 04:30:40;;;;;;;3.40;3.00;;;;;;;;;;5115985;28;20232;-86
2022/02/06 04:33:09;;;;;;;2.90;2.60;;;;;;;;;;5115262;28;20279;-86
2022/02/06 04:35:38;;;;;;;2.87;2.67;;;;;;;;;;5115613;28;20665;-86
2022/02/06 04:38:24;;;;;;;4.17;3.23;;;;;;;;;;5116164;28;20583;-87
2022/02/06 04:41:13;;;;;;;4.77;2.97;;;;;;;;;;5115305;28;20220;-87
2022/02/06 04:44:13;;;;;;;4.77;2.73;;;;;;;;;;5115170;28;20259;-86
2022/02/06 05:12:02;;;;;;;4.13;3.73;;;;;;;;;;5115119;28;20183;-87
2022/02/06 05:20:35;;;;;;;4.40;4.00;;;;;;;;;;5109242;28;20191;-87
2022/02/06 05:26:11;;;;;;;4.80;3.40;;;;;;;;;;5111270;28;20195;-87
2022/02/06 05:28:43;;;;;;;4.80;3.30;;;;;;;;;;5114481;28;20654;-87
2022/02/06 05:31:13;;;;;;;5.20;4.13;;;;;;;;;;5114583;28;20184;-87
2022/02/06 05:33:40;;;;;;;7.63;5.33;;;;;;;;;;5114169;28;20310;-86
2022/02/06 05:36:10;;;;;;;6.97;6.27;;;;;;;;;;5114535;28;20196;-88
2022/02/06 05:38:39;;;;;;;35.93;29.57;;;;;;;;;;5114645;28;20192;-88
2022/02/06 05:41:07;;;;;;;27.17;17.60;;;;;;;;;;5114779;28;20226;-87
2022/02/06 05:43:36;;;;;;;14.50;10.77;;;;;;;;;;5114650;28;20224;-88
2022/02/06 05:46:03;;;;;;;13.83;10.23;;;;;;;;;;5114608;28;20191;-87
2022/02/06 05:48:30;;;;;;;192.47;99.93;;;;;;;;;;5114628;28;20296;-87
2022/02/06 05:50:58;;;;;;;55.80;36.67;;;;;;;;;;5114359;28;20252;-88
2022/02/06 05:53:25;;;;;;;11.70;9.70;;;;;;;;;;5114814;28;20292;-88
2022/02/06 05:55:54;;;;;;;5.43;4.83;;;;;;;;;;5114365;28;20223;-87
2022/02/06 05:58:21;;;;;;;6.23;4.30;;;;;;;;;;5114175;28;20199;-87
2022/02/06 06:00:49;;;;;;;5.37;3.67;;;;;;;;;;5114420;28;20229;-88
2022/02/06 06:03:16;;;;;;;17.30;9.93;;;;;;;;;;5114555;28;20199;-87
2022/02/06 06:05:43;;;;;;;11.03;7.20;;;;;;;;;;5113702;28;20316;-87
2022/02/06 06:08:10;;;;;;;16.30;12.93;;;;;;;;;;5114155;28;20660;-87
2022/02/06 06:10:38;;;;;;;8.43;6.97;;;;;;;;;;5113749;28;20659;-86
2022/02/06 06:13:07;;;;;;;6.00;4.53;;;;;;;;;;5114522;28;20223;-87
2022/02/06 06:15:34;;;;;;;7.27;5.80;;;;;;;;;;5113931;28;20278;-87
2022/02/06 06:18:04;;;;;;;4.27;3.60;;;;;;;;;;5113670;28;20729;-87
2022/02/06 06:20:33;;;;;;;6.27;3.67;;;;;;;;;;5113835;28;20191;-87
2022/02/06 06:23:01;;;;;;;5.20;3.87;;;;;;;;;;5113977;28;20223;-87
2022/02/06 06:25:35;;;;;;;10.53;8.63;;;;;;;;;;5113885;28;20227;-87
2022/02/06 06:28:02;;;;;;;11.77;8.80;;;;;;;;;;5113562;28;20188;-87
2022/02/06 06:30:31;;;;;;;11.60;6.90;;;;;;;;;;5113332;28;20199;-87
2022/02/06 06:32:58;;;;;;;9.50;5.30;;;;;;;;;;5113634;28;20226;-87
2022/02/06 06:35:25;;;;;;;7.50;4.57;;;;;;;;;;5113580;28;20635;-87
2022/02/06 06:37:53;;;;;;;9.00;5.23;;;;;;;;;;5113364;28;20184;-87
2022/02/06 06:40:20;;;;;;;7.07;4.60;;;;;;;;;;5113284;28;20199;-87
2022/02/06 06:42:47;;;;;;;8.23;5.93;;;;;;;;;;5112993;28;20799;-87
2022/02/06 06:45:14;;;;;;;64.63;42.80;;;;;;;;;;5113388;28;20219;-86
2022/02/06 06:47:51;;;;;;;88.07;54.80;;;;;;;;;;5113320;28;20257;-86
2022/02/06 06:50:18;;;;;;;69.97;40.00;;;;;;;;;;5112937;28;20274;-87
2022/02/06 06:52:46;;;;;;;28.07;20.70;;;;;;;;;;5113102;28;20283;-86
2022/02/06 06:55:16;;;;;;;10.20;8.50;;;;;;;;;;5113349;28;20199;-85
2022/02/06 06:57:51;;;;;;;18.83;12.73;;;;;;;;;;5113543;28;20195;-87
2022/02/06 07:00:25;;;;;;;16.47;11.20;;;;;;;;;;5112767;28;20187;-87
2022/02/06 07:02:54;;;;;;;10.43;8.60;;;;;;;;;;5113052;28;20176;-87
2022/02/06 07:05:21;;;;;;;5.73;5.20;;;;;;;;;;5112936;28;20195;-87
2022/02/06 07:07:49;;;;;;;5.60;4.93;;;;;;;;;;5112982;28;20286;-87
2022/02/06 07:10:16;;;;;;;15.03;11.93;;;;;;;;;;5113345;28;20226;-86
2022/02/06 07:12:43;;;;;;;13.20;9.97;;;;;;;;;;5112725;28;20215;-86
2022/02/06 07:15:11;;;;;;;14.60;10.07;;;;;;;;;;5113248;28;20227;-88
2022/02/06 07:17:38;;;;;;;12.90;9.30;;;;;;;;;;5113178;28;20196;-88
2022/02/06 07:20:08;;;;;;;8.50;6.60;;;;;;;;;;5113213;28;20238;-88
2022/02/06 07:22:37;;;;;;;8.07;6.23;;;;;;;;;;5113432;28;20290;-88
2022/02/06 07:25:05;;;;;;;7.67;5.57;;;;;;;;;;5113156;28;20202;-88
2022/02/06 07:27:35;;;;;;;7.00;5.07;;;;;;;;;;5113445;28;20198;-88
2022/02/06 07:30:05;;;;;;;4.10;3.73;;;;;;;;;;5113125;28;20191;-87
2022/02/06 07:32:33;;;;;;;4.50;3.40;;;;;;;;;;5114653;28;20214;-89
2022/02/06 07:35:01;;;;;;;6.70;4.17;;;;;;;;;;5134154;27;20620;-89
2022/02/06 07:37:29;;;;;;;10.63;6.63;;;;;;;;;;5133931;27;20277;-89
2022/02/06 07:39:57;;;;;;;4.67;4.10;;;;;;;;;;5134278;27;20581;-89
2022/02/06 07:42:24;;;;;;;5.60;5.10;;;;;;;;;;5134022;27;20227;-88
2022/02/06 07:44:52;;;;;;;6.73;6.03;;;;;;;;;;5137940;27;20197;-89
2022/02/06 07:47:22;;;;;;;3.73;3.43;;;;;;;;;;5137599;27;20195;-89
2022/02/06 07:49:50;;;;;;;7.50;5.90;;;;;;;;;;5137582;27;20647;-89
2022/02/06 07:52:18;;;;;;;3.70;3.30;;;;;;;;;;5137101;27;20199;-89
2022/02/06 07:54:47;;;;;;;3.33;2.57;;;;;;;;;;5137726;27;20230;-89
2022/02/06 07:57:14;;;;;;;28.67;17.23;;;;;;;;;;5137968;27;20217;-89
2022/02/06 07:59:42;;;;;;;43.57;23.70;;;;;;;;;;5137048;27;20205;-89
2022/02/06 08:02:09;;;;;;;12.00;6.20;;;;;;;;;;5137231;27;20199;-89
2022/02/06 08:04:37;;;;;;;4.20;3.70;;;;;;;;;;5136819;27;20248;-88
2022/02/06 08:07:05;;;;;;;5.43;3.53;;;;;;;;;;5136814;27;20199;-88
2022/02/06 08:09:46;;;;;;;3.17;2.60;;;;;;;;;;5136937;27;20198;-89
2022/02/06 08:12:15;;;;;;;3.33;2.67;;;;;;;;;;5136911;27;20187;-89
2022/02/06 08:14:54;;;;;;;3.00;2.70;;;;;;;;;;5136701;27;20246;-89
2022/02/06 08:17:27;;;;;;;2.70;2.50;;;;;;;;;;5137034;27;20662;-88
2022/02/06 08:19:55;;;;;;;5.20;3.50;;;;;;;;;;5136913;27;20179;-89
2022/02/06 08:22:23;;;;;;;3.23;2.77;;;;;;;;;;5136740;27;20233;-90
2022/02/06 08:24:51;;;;;;;3.40;3.10;;;;;;;;;;5137095;27;20693;-90
2022/02/06 08:27:21;;;;;;;2.27;2.07;;;;;;;;;;5136734;27;20187;-90
2022/02/06 08:29:50;;;;;;;2.67;2.47;;;;;;;;;;5136648;27;20251;-90
2022/02/06 08:32:22;;;;;;;2.90;2.60;;;;;;;;;;5136714;27;20191;-90
2022/02/06 08:34:50;;;;;;;3.47;2.90;;;;;;;;;;5136499;27;20225;-90
2022/02/06 08:37:17;;;;;;;3.27;3.03;;;;;;;;;;5136312;27;20195;-90
2022/02/06 08:39:45;;;;;;;3.60;2.70;;;;;;;;;;5136366;27;20662;-90
2022/02/06 08:42:14;;;;;;;4.83;3.57;;;;;;;;;;5136366;27;20244;-90
2022/02/06 08:44:45;;;;;;;12.47;6.77;;;;;;;;;;5136439;27;20183;-90
2022/02/06 08:47:13;;;;;;;6.93;5.10;;;;;;;;;;5136675;27;20624;-90
2022/02/06 08:49:41;;;;;;;21.07;12.50;;;;;;;;;;5136126;27;20663;-89
2022/02/06 08:52:11;;;;;;;17.70;8.67;;;;;;;;;;5135956;27;20201;-90
2022/02/06 08:54:38;;;;;;;47.57;25.00;;;;;;;;;;5135669;27;20222;-90
2022/02/06 08:57:13;;;;;;;11.90;7.47;;;;;;;;;;5136232;27;20251;-91
2022/02/06 08:59:42;;;;;;;49.47;23.53;;;;;;;;;;5137828;27;20182;-89
2022/02/06 09:02:09;;;;;;;27.73;13.00;;;;;;;;;;5136437;27;20198;-88
2022/02/06 09:04:37;;;;;;;31.30;19.40;;;;;;;;;;5135752;27;20190;-89
2022/02/06 09:07:04;;;;;;;13.37;9.80;;;;;;;;;;5135993;27;20628;-89
2022/02/06 09:09:33;;;;;;;14.47;8.90;;;;;;;;;;5135804;27;20197;-89
2022/02/06 09:12:01;;;;;;;41.23;25.57;;;;;;;;;;5136043;27;20201;-90
2022/02/06 09:14:28;;;;;;;6.63;5.33;;;;;;;;;;5135448;27;20219;-89
2022/02/06 09:16:57;;;;;;;9.13;6.00;;;;;;;;;;5135960;27;20364;-91
2022/02/06 09:19:24;;;;;;;6.47;5.77;;;;;;;;;;5135723;27;20191;-89
2022/02/06 09:21:52;;;;;;;11.30;5.63;;;;;;;;;;5135575;27;20230;-89
2022/02/06 09:24:20;;;;;;;10.63;8.47;;;;;;;;;;5135557;27;20691;-90
2022/02/06 09:26:48;;;;;;;8.93;7.23;;;;;;;;;;5135265;27;20206;-90
2022/02/06 09:29:16;;;;;;;7.37;5.73;;;;;;;;;;5135275;27;20693;-89
2022/02/06 09:31:43;;;;;;;6.97;5.20;;;;;;;;;;5135263;27;20744;-89
2022/02/06 09:36:39;;;;;;;9.93;8.27;;;;;;;;;;5135640;27;20175;-89
2022/02/06 09:39:10;;;;;;;8.50;5.70;;;;;;;;;;5135036;27;20199;-89
2022/02/06 09:41:38;;;;;;;6.47;4.93;;;;;;;;;;5135169;27;20186;-89
2022/02/06 09:44:06;;;;;;;11.77;7.70;;;;;;;;;;5134649;27;20714;-89
2022/02/06 09:46:36;;;;;;;5.40;4.90;;;;;;;;;;5135141;27;20523;-89
2022/02/06 09:49:04;;;;;;;6.33;5.73;;;;;;;;;;5135182;27;20186;-89
2022/02/06 09:51:34;;;;;;;6.80;4.77;;;;;;;;;;5135409;27;20222;-89
2022/02/06 09:54:03;;;;;;;6.30;4.77;;;;;;;;;;5134886;27;20261;-89
2022/02/06 09:56:32;;;;;;;4.73;3.90;;;;;;;;;;5134520;27;20202;-89
2022/02/06 09:59:03;;;;;;;6.17;4.03;;;;;;;;;;5134766;27;20281;-89
2022/02/06 10:01:34;;;;;;;3.63;2.83;;;;;;;;;;5134814;27;20183;-89
2022/02/06 10:04:06;;;;;;;5.10;4.13;;;;;;;;;;5135431;27;20217;-89
2022/02/06 10:06:44;;;;;;;6.57;5.80;;;;;;;;;;5134074;27;20191;-89
2022/02/06 10:09:14;;;;;;;11.07;7.37;;;;;;;;;;5134943;27;20251;-90
2022/02/06 10:11:46;;;;;;;9.40;6.37;;;;;;;;;;5134661;27;20244;-89
2022/02/06 10:14:14;;;;;;;5.13;4.23;;;;;;;;;;5134411;27;20222;-89
2022/02/06 10:16:41;;;;;;;6.33;4.90;;;;;;;;;;5134415;27;20690;-89
2022/02/06 10:19:09;;;;;;;6.03;3.70;;;;;;;;;;5134539;27;20195;-90
2022/02/06 10:21:38;;;;;;;17.13;4.30;;;;;;;;;;5134373;27;20199;-89
2022/02/06 10:24:11;;;;;;;7.00;4.93;;;;;;;;;;5134287;27;20199;-89
2022/02/06 10:26:42;;;;;;;50.50;23.97;;;;;;;;;;5134092;27;20194;-89
2022/02/06 10:29:24;;;;;;;32.07;17.50;;;;;;;;;;5134156;27;20191;-89
2022/02/06 10:31:54;;;;;;;64.63;31.50;;;;;;;;;;5134539;27;20204;-89
2022/02/06 10:34:22;;;;;;;54.23;33.77;;;;;;;;;;5134105;27;20207;-89
2022/02/06 10:36:52;;;;;;;11.40;8.37;;;;;;;;;;5134004;27;20195;-90
2022/02/06 10:39:24;;;;;;;7.30;5.23;;;;;;;;;;5134605;27;20196;-89
2022/02/06 10:41:51;;;;;;;22.20;13.30;;;;;;;;;;5134127;27;20554;-89
2022/02/06 10:44:20;;;;;;;24.53;13.67;;;;;;;;;;5133914;27;20191;-89
2022/02/06 10:46:53;;;;;;;17.47;10.90;;;;;;;;;;5133877;27;20247;-89
2022/02/06 10:49:21;;;;;;;19.53;13.83;;;;;;;;;;5134497;27;20266;-89
2022/02/06 10:51:51;;;;;;;14.23;10.13;;;;;;;;;;5134054;27;20551;-89
2022/02/06 10:54:27;;;;;;;9.13;7.40;;;;;;;;;;5133781;27;20229;-89
2022/02/06 10:57:02;;;;;;;24.60;16.30;;;;;;;;;;5134164;27;20235;-89
2022/02/06 10:59:30;;;;;;;22.07;15.97;;;;;;;;;;5133570;28;20273;-89
2022/02/06 11:01:58;;;;;;;10.00;5.27;;;;;;;;;;5134114;27;20233;-89
2022/02/06 11:04:32;;;;;;;19.30;13.40;;;;;;;;;;5134105;28;20248;-89
2022/02/06 11:07:15;;;;;;;14.27;10.27;;;;;;;;;;5133563;28;20271;-89
2022/02/06 11:09:44;;;;;;;13.43;10.50;;;;;;;;;;5134002;27;20179;-89
2022/02/06 11:12:13;;;;;;;9.03;7.73;;;;;;;;;;5133530;28;20285;-89
2022/02/06 11:14:47;;;;;;;17.57;12.10;;;;;;;;;;5133509;27;20261;-89
2022/02/06 11:17:20;;;;;;;23.83;16.23;;;;;;;;;;5136628;27;20221;-90
2022/02/06 11:20:01;;;;;;;16.07;11.97;;;;;;;;;;5137848;27;20193;-89
2022/02/06 11:22:29;;;;;;;6.53;5.60;;;;;;;;;;5137602;27;20222;-89
2022/02/06 11:24:59;;;;;;;18.63;12.73;;;;;;;;;;5137842;27;20191;-89
2022/02/06 11:27:27;;;;;;;16.30;9.83;;;;;;;;;;5137910;27;20421;-89
2022/02/06 11:29:55;;;;;;;17.70;12.10;;;;;;;;;;5137756;27;20270;-89
2022/02/06 11:32:23;;;;;;;8.70;7.13;;;;;;;;;;5137816;27;20285;-89
2022/02/06 11:34:51;;;;;;;15.53;10.80;;;;;;;;;;5137456;27;20789;-89
2022/02/06 11:43:51;;;;;;;12.87;8.57;;;;;;;;;;5137701;27;20327;-89
2022/02/06 11:46:23;;;;;;;12.70;9.47;;;;;;;;;;5137562;27;20198;-89
2022/02/06 11:48:52;;;;;;;9.10;6.80;;;;;;;;;;5137309;27;20182;-89
2022/02/06 11:51:20;;;;;;;8.53;5.57;;;;;;;;;;5137171;27;20244;-90
2022/02/06 11:53:48;;;;;;;11.73;7.30;;;;;;;;;;5137353;27;20201;-90
2022/02/06 11:56:24;;;;;;;16.37;12.97;;;;;;;;;;5137272;27;20252;-88
2022/02/06 11:58:52;;;;;;;10.80;8.43;;;;;;;;;;5137140;27;20188;-89
2022/02/06 12:01:28;;;;;;;10.10;4.83;;;;;;;;;;5136900;27;20745;-89
2022/02/06 12:04:04;;;;;;;7.77;6.33;;;;;;;;;;5137778;27;20191;-88
2022/02/06 12:06:52;;;;;;;10.80;8.57;;;;;;;;;;5137491;27;20192;-87
2022/02/06 12:09:21;;;;;;;7.07;6.37;;;;;;;;;;5136864;27;20190;-87
2022/02/06 12:12:16;;;;;;;14.07;11.03;;;;;;;;;;5136839;27;20195;-87
2022/02/06 12:14:47;;;;;;;12.07;7.50;;;;;;;;;;5126996;27;20258;-88
2022/02/06 12:17:23;;;;;;;8.20;6.40;;;;;;;;;;5136808;27;20195;-89
2022/02/06 12:20:07;;;;;;;10.23;6.80;;;;;;;;;;5136795;27;20182;-88
2022/02/06 12:22:39;;;;;;;8.23;5.13;;;;;;;;;;5136438;27;20194;-88
2022/02/06 12:25:22;;;;;;;9.93;5.60;;;;;;;;;;5136490;27;20202;-88
2022/02/06 12:27:52;;;;;;;9.07;7.00;;;;;;;;;;5135661;27;20205;-88
2022/02/06 12:30:25;;;;;;;8.17;7.37;;;;;;;;;;5136640;27;20195;-88
2022/02/06 12:32:54;;;;;;;7.13;6.43;;;;;;;;;;5136864;27;20927;-89
2022/02/06 12:38:12;;;;;;;10.77;8.53;;;;;;;;;;5136831;27;20182;-88
2022/02/06 12:40:39;;;;;;;9.50;7.20;;;;;;;;;;5136571;27;20191;-88
2022/02/06 12:43:08;;;;;;;9.87;5.73;;;;;;;;;;5136301;27;20287;-89
2022/02/06 12:45:35;;;;;;;7.97;6.57;;;;;;;;;;5136173;27;20352;-88
2022/02/06 12:48:06;;;;;;;10.77;6.83;;;;;;;;;;5136344;27;20232;-88
2022/02/06 12:50:35;;;;;;;9.23;6.07;;;;;;;;;;5136444;27;20225;-89
2022/02/06 12:53:05;;;;;;;10.53;8.03;;;;;;;;;;5135937;27;20668;-89
2022/02/06 12:55:34;;;;;;;9.97;8.03;;;;;;;;;;5135841;27;20310;-89
2022/02/06 12:58:01;;;;;;;10.13;8.30;;;;;;;;;;5136410;27;20208;-88
2022/02/06 13:00:35;;;;;;;7.10;6.40;;;;;;;;;;5136529;27;20191;-87
2022/02/06 13:03:24;;;;;;;7.43;5.40;;;;;;;;;;5136866;27;20239;-88
2022/02/06 13:05:53;;;;;;;9.73;7.53;;;;;;;;;;5136728;27;20194;-89
2022/02/06 13:08:20;;;;;;;13.07;7.97;;;;;;;;;;5135780;27;20285;-89
2022/02/06 13:10:58;;;;;;;18.30;12.73;;;;;;;;;;5136008;27;20201;-87
2022/02/06 13:13:32;;;;;;;125.23;66.03;;;;;;;;;;5135714;27;20237;-87
2022/02/06 13:16:17;;;;;;;34.00;19.87;;;;;;;;;;5135279;27;20202;-87
2022/02/06 13:21:58;;;;;;;23.23;16.77;;;;;;;;;;5072620;28;20276;-88
2022/02/06 13:24:40;;;;;;;14.80;13.07;;;;;;;;;;5071717;28;20193;-87
2022/02/06 13:27:24;;;;;;;14.27;10.23;;;;;;;;;;5112382;27;20264;-88
2022/02/06 13:29:59;;;;;;;19.93;12.50;;;;;;;;;;5134723;27;20183;-87
2022/02/06 13:32:38;;;;;;;11.13;9.47;;;;;;;;;;5134992;27;20236;-88
2022/02/06 13:35:27;;;;;;;9.40;8.20;;;;;;;;;;5134686;27;20211;-88
2022/02/06 13:37:59;;;;;;;10.57;8.73;;;;;;;;;;5134908;27;20189;-88
2022/02/06 13:40:31;;;;;;;9.10;7.93;;;;;;;;;;5134565;27;20191;-88
2022/02/06 13:43:00;;;;;;;15.03;11.73;;;;;;;;;;5134338;27;20234;-88
2022/02/06 13:45:28;;;;;;;13.00;8.77;;;;;;;;;;5134431;27;20198;-88
2022/02/06 13:47:58;;;;;;;12.20;10.10;;;;;;;;;;5134376;27;20255;-88
2022/02/06 13:50:26;;;;;;;13.63;11.33;;;;;;;;;;5134904;27;20187;-87
2022/02/06 13:53:11;;;;;;;13.97;12.60;;;;;;;;;;5134341;27;20666;-86
2022/02/06 13:55:46;;;;;;;14.73;12.27;;;;;;;;;;5134211;27;20253;-91
2022/02/06 13:58:15;;;;;;;17.37;14.10;;;;;;;;;;5134682;27;20254;-88
2022/02/06 14:00:54;;;;;;;14.10;10.17;;;;;;;;;;5134146;27;20202;-88
2022/02/06 14:03:23;;;;;;;15.27;9.73;;;;;;;;;;5134287;27;20232;-89
2022/02/06 14:05:52;;;;;;;12.30;10.50;;;;;;;;;;5133888;27;20297;-89
2022/02/06 14:08:21;;;;;;;20.93;15.10;;;;;;;;;;5134762;27;20295;-89
2022/02/06 14:11:03;;;;;;;21.20;13.80;;;;;;;;;;5134777;27;20187;-90
2022/02/06 14:13:31;;;;;;;16.57;10.70;;;;;;;;;;5134553;27;20198;-90
2022/02/06 14:16:05;;;;;;;11.20;8.63;;;;;;;;;;5134696;27;20222;-90
2022/02/06 14:18:36;;;;;;;8.77;7.33;;;;;;;;;;5134398;27;20176;-89
2022/02/06 14:21:03;;;;;;;16.17;11.63;;;;;;;;;;5134705;27;20209;-90
2022/02/06 14:23:30;;;;;;;16.17;11.67;;;;;;;;;;5134385;27;20574;-89
2022/02/06 14:26:12;;;;;;;14.43;9.63;;;;;;;;;;5134488;27;20631;-89
2022/02/06 14:28:47;;;;;;;20.80;14.03;;;;;;;;;;5134441;27;20199;-89
2022/02/06 14:31:27;;;;;;;21.60;16.77;;;;;;;;;;5134466;27;20269;-89
2022/02/06 14:34:14;;;;;;;18.90;14.27;;;;;;;;;;5133827;27;20277;-89
2022/02/06 14:36:43;;;;;;;15.00;11.60;;;;;;;;;;5134116;27;20242;-89
2022/02/06 14:39:11;;;;;;;47.87;32.93;;;;;;;;;;5134108;27;20190;-89
2022/02/06 14:41:48;;;;;;;19.30;12.27;;;;;;;;;;5134464;27;20224;-89
2022/02/06 14:44:25;;;;;;;32.77;23.97;;;;;;;;;;5134572;27;20193;-89
2022/02/06 14:46:53;;;;;;;42.17;27.87;;;;;;;;;;5133782;27;20277;-89
2022/02/06 14:49:27;;;;;;;21.50;17.30;;;;;;;;;;5133744;27;20644;-89
2022/02/06 14:51:54;;;;;;;38.73;26.00;;;;;;;;;;5133176;27;20280;-87
2022/02/06 14:54:30;;;;;;;26.37;20.10;;;;;;;;;;5133222;27;20198;-86
2022/02/06 14:56:58;;;;;;;22.17;18.00;;;;;;;;;;5133055;27;20186;-85
2022/02/06 14:59:25;;;;;;;15.70;11.73;;;;;;;;;;5132809;28;20260;-87
2022/02/06 15:01:53;;;;;;;13.93;11.93;;;;;;;;;;5133293;27;20198;-87
2022/02/06 15:04:25;;;;;;;14.77;13.27;;;;;;;;;;5132931;27;20230;-86
2022/02/06 15:06:53;;;;;;;19.27;17.23;;;;;;;;;;5132712;28;20210;-87
2022/02/06 15:09:20;;;;;;;20.10;15.47;;;;;;;;;;5133184;28;20191;-87
2022/02/06 15:11:47;;;;;;;10.43;6.53;;;;;;;;;;5132915;28;20195;-88
2022/02/06 15:14:15;;;;;;;15.07;13.67;;;;;;;;;;5133363;27;20334;-88
2022/02/06 15:16:44;;;;;;;10.63;7.20;;;;;;;;;;5132542;27;20258;-87
2022/02/06 15:19:17;;;;;;;48.40;30.07;;;;;;;;;;5133042;27;20285;-87
2022/02/06 15:21:46;;;;;;;33.00;17.60;;;;;;;;;;5132952;28;20244;-87
2022/02/06 15:24:16;;;;;;;17.13;12.83;;;;;;;;;;5132981;28;20190;-89
2022/02/06 15:26:43;;;;;;;10.60;8.80;;;;;;;;;;5133031;28;20282;-87
2022/02/06 15:29:10;;;;;;;22.53;17.57;;;;;;;;;;5133102;27;20218;-88
2022/02/06 15:31:38;;;;;;;17.33;13.13;;;;;;;;;;5133142;28;20220;-87
2022/02/06 15:34:05;;;;;;;48.77;32.17;;;;;;;;;;5132998;28;20234;-88
2022/02/06 15:36:34;;;;;;;81.57;48.80;;;;;;;;;;5133944;28;20215;-88
2022/02/06 15:39:05;;;;;;;32.17;21.90;;;;;;;;;;5132591;28;20255;-87
2022/02/06 15:41:33;;;;;;;27.27;17.93;;;;;;;;;;5133007;28;20229;-87
2022/02/06 15:44:02;;;;;;;35.37;26.40;;;;;;;;;;5132420;28;20230;-87
2022/02/06 15:46:31;;;;;;;37.70;26.37;;;;;;;;;;5132585;28;20194;-87
2022/02/06 15:48:58;;;;;;;40.17;27.87;;;;;;;;;;5133140;27;20195;-88
2022/02/06 15:51:26;;;;;;;177.93;102.50;;;;;;;;;;5132793;28;20219;-88
2022/02/06 15:53:53;;;;;;;172.23;97.47;;;;;;;;;;5133433;28;20252;-88
2022/02/06 15:56:22;;;;;;;137.53;75.20;;;;;;;;;;5132765;28;20773;-88
2022/02/06 15:58:50;;;;;;;26.03;21.73;;;;;;;;;;5133124;28;20235;-88
2022/02/06 16:01:17;;;;;;;41.03;36.60;;;;;;;;;;5133288;28;20194;-88
2022/02/06 16:03:44;;;;;;;27.80;22.73;;;;;;;;;;5134742;27;20729;-88
2022/02/06 16:06:12;;;;;;;26.03;23.23;;;;;;;;;;5136935;27;20194;-88
2022/02/06 16:08:39;;;;;;;30.63;27.40;;;;;;;;;;5136462;27;20202;-88
2022/02/06 16:11:06;;;;;;;24.57;20.97;;;;;;;;;;5138890;27;20233;-88
2022/02/06 16:13:35;;;;;;;13.93;12.47;;;;;;;;;;5136917;27;20205;-88
2022/02/06 16:16:02;;;;;;;16.47;14.77;;;;;;;;;;5137073;27;20210;-88
2022/02/06 16:18:29;;;;;;;21.10;18.53;;;;;;;;;;5136699;27;20301;-88
2022/02/06 16:20:57;;;;;;;15.83;14.23;;;;;;;;;;5136985;27;20302;-88
2022/02/06 16:23:25;;;;;;;13.00;11.67;;;;;;;;;;5136847;27;20198;-88
2022/02/06 16:25:53;;;;;;;18.47;14.27;;;;;;;;;;5136987;27;20194;-88
2022/02/06 16:28:20;;;;;;;29.33;22.17;;;;;;;;;;5136809;27;20194;-88
2022/02/06 16:30:53;;;;;;;16.27;12.90;;;;;;;;;;5136706;27;20222;-88
2022/02/06 16:33:21;;;;;;;15.23;12.63;;;;;;;;;;5136614;27;20205;-88